Time;durP1;ratioP1;P1;durP2;ratioP2;P2;SDS_P1;SDS_P2;PMS_P1;PMS_P2;Temp;Humidity;BMP_temperature;BMP_pressure;BME280_temperature;BME280_humidity;BME280_pressure;Samples;Min_cycle;Max_cycle;Signal;HPM_P1;HPM_P2
2022/10/14 00:02:13;;;;;;;16.27;12.60;;;14.90;99.90;;;;;;5000789;28;20467;-82
2022/10/14 00:04:40;;;;;;;18.93;14.47;;;14.80;99.90;;;;;;4999765;28;20483;-82
2022/10/14 00:07:07;;;;;;;17.33;13.57;;;14.90;99.90;;;;;;4999266;28;20448;-82
2022/10/14 00:09:34;;;;;;;14.70;13.20;;;14.90;99.90;;;;;;4999393;28;20446;-82
2022/10/14 00:12:00;;;;;;;20.97;13.73;;;14.90;99.90;;;;;;5017266;28;20462;-83
2022/10/14 00:14:27;;;;;;;17.50;14.77;;;14.90;99.90;;;;;;5012760;28;20834;-82
2022/10/14 00:16:54;;;;;;;14.00;12.10;;;14.90;99.90;;;;;;5000462;28;20455;-81
2022/10/14 00:19:22;;;;;;;16.27;13.70;;;14.90;99.90;;;;;;5000159;28;20449;-82
2022/10/14 00:21:49;;;;;;;13.97;12.50;;;14.90;99.90;;;;;;5007212;28;20475;-81
2022/10/14 00:24:17;;;;;;;15.13;13.57;;;14.90;99.90;;;;;;5004058;28;20474;-82
2022/10/14 00:26:45;;;;;;;13.60;12.20;;;15.00;99.90;;;;;;4999964;28;20935;-82
2022/10/14 00:29:16;;;;;;;15.63;13.67;;;14.90;99.90;;;;;;5000142;28;20448;-82
2022/10/14 00:31:43;;;;;;;14.43;13.13;;;14.90;99.90;;;;;;5000888;28;20891;-82
2022/10/14 00:34:11;;;;;;;14.00;12.60;;;14.90;99.90;;;;;;4998973;28;20443;-82
2022/10/14 00:36:41;;;;;;;17.17;14.13;;;14.90;99.90;;;;;;4998098;28;20456;-81
2022/10/14 00:39:08;;;;;;;17.33;13.30;;;14.90;99.90;;;;;;5001469;28;20452;-82
2022/10/14 00:41:36;;;;;;;16.27;13.13;;;14.90;99.90;;;;;;4998758;28;20981;-81
2022/10/14 00:44:05;;;;;;;17.93;12.87;;;14.90;99.90;;;;;;4997787;28;20455;-82
2022/10/14 00:46:37;;;;;;;12.93;11.67;;;14.90;99.90;;;;;;4996961;28;20494;-82
2022/10/14 00:49:08;;;;;;;14.00;11.40;;;14.90;99.90;;;;;;4997298;28;20970;-81
2022/10/14 00:51:39;;;;;;;13.03;11.83;;;14.90;99.90;;;;;;4996879;28;20818;-82
2022/10/14 00:54:07;;;;;;;15.20;12.30;;;14.80;99.90;;;;;;4997700;28;20454;-82
2022/10/14 00:56:35;;;;;;;16.30;12.93;;;14.80;99.90;;;;;;4997010;28;20458;-82
2022/10/14 00:59:03;;;;;;;16.60;13.90;;;14.80;99.90;;;;;;4997098;28;20893;-82
2022/10/14 01:01:31;;;;;;;16.00;13.57;;;14.70;99.90;;;;;;4997548;28;20448;-82
2022/10/14 01:03:57;;;;;;;14.77;12.33;;;14.80;99.90;;;;;;4999286;28;20451;-82
2022/10/14 01:06:40;;;;;;;17.67;13.80;;;14.70;99.90;;;;;;5006184;28;20488;-81
2022/10/14 01:09:18;;;;;;;14.27;12.50;;;14.70;99.90;;;;;;5004784;28;20440;-81
2022/10/14 01:11:54;;;;;;;21.13;14.10;;;14.80;99.90;;;;;;5000610;28;20995;-82
2022/10/14 01:14:27;;;;;;;13.77;12.33;;;14.80;99.90;;;;;;4999298;28;20771;-82
2022/10/14 01:16:58;;;;;;;13.50;12.10;;;14.70;99.90;;;;;;4998802;28;20952;-82
2022/10/14 01:19:48;;;;;;;15.00;13.50;;;14.70;99.90;;;;;;4999192;28;20436;-81
2022/10/14 01:22:18;;;;;;;15.90;12.43;;;14.70;99.90;;;;;;5000032;28;20464;-81
2022/10/14 01:24:58;;;;;;;15.53;12.27;;;14.70;99.90;;;;;;5017419;28;20430;-82
2022/10/14 01:27:51;;;;;;;16.13;13.67;;;14.70;99.90;;;;;;5012263;28;20436;-81
2022/10/14 01:30:20;;;;;;;15.10;13.53;;;14.70;99.90;;;;;;5006223;28;20466;-80
2022/10/14 01:33:05;;;;;;;16.00;14.30;;;14.70;99.90;;;;;;5004438;28;20467;-82
2022/10/14 01:35:51;;;;;;;17.80;13.23;;;14.70;99.90;;;;;;5002557;28;20559;-81
2022/10/14 01:38:24;;;;;;;15.67;14.13;;;14.70;99.90;;;;;;5009865;28;20447;-82
2022/10/14 01:40:55;;;;;;;16.80;14.00;;;14.70;99.90;;;;;;5001676;28;20455;-81
2022/10/14 01:43:25;;;;;;;14.33;12.53;;;14.80;99.90;;;;;;5000862;28;20471;-81
2022/10/14 01:45:55;;;;;;;16.27;14.57;;;14.80;99.90;;;;;;5003604;28;20506;-82
2022/10/14 01:48:27;;;;;;;15.07;13.47;;;14.70;99.90;;;;;;5011021;28;20534;-82
2022/10/14 01:50:57;;;;;;;19.43;14.13;;;14.80;99.90;;;;;;5005669;28;20854;-81
2022/10/14 01:53:26;;;;;;;16.53;13.00;;;14.80;99.90;;;;;;5003025;28;20474;-82
2022/10/14 01:55:55;;;;;;;16.23;14.53;;;14.80;99.90;;;;;;5003043;28;20952;-82
2022/10/14 01:58:26;;;;;;;17.07;14.23;;;14.70;99.90;;;;;;5002683;28;20450;-82
2022/10/14 02:00:55;;;;;;;20.20;14.27;;;14.70;99.90;;;;;;5006918;28;20787;-82
2022/10/14 02:03:22;;;;;;;15.33;13.83;;;14.70;99.90;;;;;;5002465;28;20474;-82
2022/10/14 02:05:53;;;;;;;18.97;14.00;;;14.70;99.90;;;;;;5002496;28;20497;-82
2022/10/14 02:08:28;;;;;;;16.30;14.60;;;14.60;99.90;;;;;;5002824;28;20866;-83
2022/10/14 02:11:05;;;;;;;15.93;14.30;;;14.60;99.90;;;;;;5002470;28;20458;-81
2022/10/14 02:13:45;;;;;;;16.23;14.50;;;14.60;99.90;;;;;;5016683;28;20470;-82
2022/10/14 02:16:20;;;;;;;14.80;11.83;;;14.60;99.90;;;;;;5022176;28;20447;-81
2022/10/14 02:18:52;;;;;;;12.50;11.30;;;14.60;99.90;;;;;;5022941;28;20452;-81
2022/10/14 02:21:24;;;;;;;17.63;12.70;;;14.60;99.90;;;;;;5025850;28;20462;-82
2022/10/14 02:23:57;;;;;;;14.20;12.53;;;14.70;99.90;;;;;;5034154;28;20434;-81
2022/10/14 02:26:25;;;;;;;13.87;12.20;;;14.70;99.90;;;;;;5022615;28;20494;-82
2022/10/14 02:28:54;;;;;;;16.23;11.07;;;14.70;99.90;;;;;;5022713;28;20486;-82
2022/10/14 02:31:24;;;;;;;17.00;9.70;;;14.70;99.90;;;;;;5022316;28;20451;-82
2022/10/14 02:33:55;;;;;;;14.43;9.87;;;14.60;99.90;;;;;;5023572;28;20438;-83
2022/10/14 02:36:24;;;;;;;12.73;9.60;;;14.60;99.90;;;;;;5021740;28;20449;-83
2022/10/14 02:38:53;;;;;;;10.40;9.50;;;14.60;99.90;;;;;;5021123;28;21018;-83
2022/10/14 02:41:22;;;;;;;10.50;9.40;;;14.50;99.90;;;;;;5033111;28;20450;-83
2022/10/14 02:43:49;;;;;;;11.00;8.77;;;14.50;99.90;;;;;;5032751;28;20482;-83
2022/10/14 02:46:20;;;;;;;10.57;9.50;;;14.50;99.90;;;;;;5032781;28;20540;-83
2022/10/14 02:48:48;;;;;;;10.33;8.60;;;14.50;99.90;;;;;;5040212;28;20489;-83
2022/10/14 02:51:15;;;;;;;11.67;9.13;;;14.40;99.90;;;;;;5026798;28;20462;-83
2022/10/14 02:53:42;;;;;;;9.60;8.00;;;14.40;99.90;;;;;;5021083;28;20938;-83
2022/10/14 02:56:09;;;;;;;9.97;8.20;;;14.30;99.90;;;;;;5019768;28;20447;-82
2022/10/14 02:58:35;;;;;;;10.23;8.30;;;14.30;99.90;;;;;;5020189;28;20482;-83
2022/10/14 03:01:02;;;;;;;7.77;7.07;;;14.20;99.90;;;;;;5020636;28;20447;-83
2022/10/14 03:03:29;;;;;;;10.77;7.60;;;14.20;99.90;;;;;;5020664;28;20474;-83
2022/10/14 03:05:57;;;;;;;9.57;8.50;;;14.20;99.90;;;;;;5022895;28;20489;-83
2022/10/14 03:08:24;;;;;;;10.70;9.40;;;14.20;99.90;;;;;;5021271;28;20439;-83
2022/10/14 03:10:50;;;;;;;8.63;7.83;;;14.10;99.90;;;;;;5019846;28;20454;-83
2022/10/14 03:13:17;;;;;;;10.83;9.77;;;14.10;99.90;;;;;;5023786;28;20461;-82
2022/10/14 03:15:44;;;;;;;12.23;8.90;;;14.10;99.90;;;;;;5020925;28;20450;-82
2022/10/14 03:18:10;;;;;;;10.93;8.67;;;14.10;99.90;;;;;;5019998;28;20447;-81
2022/10/14 03:20:37;;;;;;;11.53;9.10;;;14.10;99.90;;;;;;5019298;28;20457;-83
2022/10/14 03:23:05;;;;;;;10.23;9.23;;;14.10;99.90;;;;;;5020566;28;20908;-81
2022/10/14 03:25:32;;;;;;;10.40;9.30;;;14.10;99.90;;;;;;5021022;28;20446;-82
2022/10/14 03:27:59;;;;;;;11.07;9.37;;;14.00;99.90;;;;;;5019908;28;20450;-82
2022/10/14 03:30:25;;;;;;;9.77;8.77;;;14.00;99.90;;;;;;5019727;28;20455;-82
2022/10/14 03:32:52;;;;;;;10.43;8.90;;;14.10;99.90;;;;;;5019010;28;20485;-83
2022/10/14 03:35:19;;;;;;;10.53;8.83;;;14.10;99.90;;;;;;5022995;28;20458;-82
2022/10/14 03:37:46;;;;;;;10.40;7.83;;;14.10;99.90;;;;;;5029963;28;20445;-82
2022/10/14 03:40:14;;;;;;;14.03;8.80;;;14.10;99.90;;;;;;5021619;28;20451;-82
2022/10/14 03:42:41;;;;;;;10.13;8.83;;;14.00;99.90;;;;;;5021901;28;20470;-82
2022/10/14 03:45:08;;;;;;;12.57;8.93;;;13.90;99.90;;;;;;5021606;28;20816;-82
2022/10/14 03:47:35;;;;;;;12.57;9.70;;;13.90;99.90;;;;;;5019068;28;20490;-83
2022/10/14 03:50:03;;;;;;;10.73;8.87;;;13.80;99.90;;;;;;5002672;28;20514;-82
2022/10/14 03:52:30;;;;;;;11.83;9.50;;;13.80;99.90;;;;;;5032302;28;20474;-81
2022/10/14 03:54:57;;;;;;;10.80;9.53;;;13.80;99.90;;;;;;5035680;28;20434;-83
2022/10/14 03:57:25;;;;;;;13.97;10.10;;;13.90;99.90;;;;;;5032666;28;20450;-82
2022/10/14 03:59:52;;;;;;;10.20;8.40;;;13.90;99.90;;;;;;5018849;28;20473;-83
2022/10/14 04:02:18;;;;;;;10.03;8.40;;;13.90;99.90;;;;;;5019285;28;20570;-82
2022/10/14 04:04:45;;;;;;;13.00;10.60;;;13.80;99.90;;;;;;5021052;28;20820;-81
2022/10/14 04:07:12;;;;;;;9.47;7.90;;;13.80;99.90;;;;;;5019297;28;20920;-82
2022/10/14 04:09:39;;;;;;;10.30;8.67;;;13.80;99.90;;;;;;5018701;28;20458;-82
2022/10/14 04:12:06;;;;;;;9.87;8.60;;;13.80;99.90;;;;;;5019298;28;20470;-82
2022/10/14 04:14:35;;;;;;;9.80;8.90;;;13.80;99.90;;;;;;5018185;28;20482;-82
2022/10/14 04:17:02;;;;;;;10.70;9.30;;;13.80;99.90;;;;;;5030579;28;20462;-82
2022/10/14 04:19:28;;;;;;;10.13;9.10;;;13.80;99.90;;;;;;5030899;28;20441;-82
2022/10/14 04:21:55;;;;;;;11.03;10.03;;;13.80;99.90;;;;;;5025448;28;20848;-81
2022/10/14 04:24:22;;;;;;;13.10;10.37;;;13.80;99.90;;;;;;5017038;28;20442;-82
2022/10/14 04:26:50;;;;;;;11.63;9.90;;;13.80;99.90;;;;;;5016655;28;20483;-82
2022/10/14 04:29:17;;;;;;;11.80;10.07;;;13.70;99.90;;;;;;5017802;28;20455;-82
2022/10/14 04:31:45;;;;;;;10.63;9.63;;;13.70;99.90;;;;;;5016343;28;20478;-79
2022/10/14 04:34:12;;;;;;;14.77;12.73;;;13.70;99.90;;;;;;5016730;28;20452;-79
2022/10/14 04:36:40;;;;;;;15.47;13.83;;;13.70;99.90;;;;;;5019101;28;20461;-80
2022/10/14 04:39:06;;;;;;;15.10;13.20;;;13.80;99.90;;;;;;5016288;28;20446;-80
2022/10/14 04:41:33;;;;;;;17.50;15.30;;;13.80;99.90;;;;;;5015915;28;20874;-80
2022/10/14 04:44:00;;;;;;;22.83;19.00;;;13.80;99.90;;;;;;5018076;28;20478;-80
2022/10/14 04:46:27;;;;;;;21.63;19.13;;;13.80;99.90;;;;;;5016466;28;20485;-80
2022/10/14 04:48:55;;;;;;;24.17;19.20;;;13.90;99.90;;;;;;5015360;28;20442;-79
2022/10/14 04:51:21;;;;;;;21.47;17.50;;;13.90;99.90;;;;;;5015834;28;20450;-80
2022/10/14 04:53:48;;;;;;;25.03;19.63;;;13.90;99.90;;;;;;5015677;28;20530;-79
2022/10/14 04:56:15;;;;;;;18.10;16.20;;;13.90;99.90;;;;;;5015720;28;20448;-79
2022/10/14 04:58:41;;;;;;;19.37;16.80;;;13.90;99.90;;;;;;5015399;28;20824;-79
2022/10/14 05:01:08;;;;;;;19.63;16.57;;;13.90;99.90;;;;;;5016622;28;20455;-79
2022/10/14 05:03:35;;;;;;;20.03;17.97;;;14.00;99.90;;;;;;5017326;28;20454;-79
2022/10/14 05:06:03;;;;;;;21.20;17.60;;;14.00;99.90;;;;;;5017096;28;20453;-80
2022/10/14 05:08:30;;;;;;;19.57;17.20;;;14.00;99.90;;;;;;5029412;28;20482;-78
2022/10/14 05:10:57;;;;;;;26.00;18.87;;;14.00;99.90;;;;;;5034063;28;20439;-80
2022/10/14 05:13:23;;;;;;;22.00;18.80;;;14.00;99.90;;;;;;5026623;28;20458;-80
2022/10/14 05:15:50;;;;;;;22.20;18.80;;;13.90;99.90;;;;;;5037230;28;20540;-80
2022/10/14 05:18:18;;;;;;;20.97;17.33;;;13.90;99.90;;;;;;5036512;28;20441;-80
2022/10/14 05:20:45;;;;;;;18.83;16.83;;;14.00;99.90;;;;;;5040920;28;20418;-78
2022/10/14 05:23:13;;;;;;;22.00;17.27;;;14.00;99.90;;;;;;5044405;28;20466;-80
2022/10/14 05:25:40;;;;;;;24.27;17.47;;;14.00;99.90;;;;;;5037432;28;20445;-80
2022/10/14 05:28:07;;;;;;;21.70;17.70;;;14.00;99.90;;;;;;5043264;28;20572;-80
2022/10/14 05:30:33;;;;;;;18.67;16.67;;;14.00;99.90;;;;;;5053977;28;20449;-78
2022/10/14 05:33:03;;;;;;;24.93;18.40;;;14.10;99.90;;;;;;5038649;28;20489;-80
2022/10/14 05:35:33;;;;;;;21.07;18.13;;;14.10;99.90;;;;;;5012543;28;20438;-79
2022/10/14 05:38:00;;;;;;;19.60;17.57;;;14.10;99.90;;;;;;5004565;28;20447;-79
2022/10/14 05:40:28;;;;;;;21.97;18.10;;;14.10;99.90;;;;;;5005611;28;20449;-81
2022/10/14 05:42:54;;;;;;;22.37;19.70;;;14.10;99.90;;;;;;5007279;28;20478;-80
2022/10/14 05:45:21;;;;;;;20.70;18.43;;;14.10;99.90;;;;;;5009061;28;20466;-79
2022/10/14 05:47:48;;;;;;;22.60;20.20;;;14.10;99.90;;;;;;5010708;28;20489;-79
2022/10/14 05:50:15;;;;;;;25.43;22.37;;;14.10;99.90;;;;;;5029486;28;20660;-79
2022/10/14 05:52:42;;;;;;;26.80;21.30;;;14.20;99.90;;;;;;5005129;28;20455;-81
2022/10/14 05:55:09;;;;;;;29.67;23.63;;;14.20;99.90;;;;;;5006686;28;20529;-81
2022/10/14 05:57:38;;;;;;;29.13;19.87;;;14.20;99.90;;;;;;5008324;28;20476;-80
2022/10/14 06:00:06;;;;;;;22.70;18.70;;;14.20;99.90;;;;;;5003486;28;20455;-81
2022/10/14 06:02:33;;;;;;;22.13;19.43;;;14.20;99.90;;;;;;5005232;28;20474;-81
2022/10/14 06:04:59;;;;;;;25.33;19.80;;;14.30;99.90;;;;;;4997397;28;20887;-80
2022/10/14 06:07:26;;;;;;;24.70;17.63;;;14.30;99.90;;;;;;5009163;28;20869;-81
2022/10/14 06:09:53;;;;;;;20.77;18.57;;;14.30;99.90;;;;;;5007660;28;20462;-82
2022/10/14 06:12:20;;;;;;;22.60;17.27;;;14.30;99.90;;;;;;5003518;28;20469;-83
2022/10/14 06:14:48;;;;;;;21.53;18.10;;;14.30;99.90;;;;;;5008969;28;20451;-82
2022/10/14 06:17:15;;;;;;;22.47;17.77;;;14.30;99.90;;;;;;4999515;28;20455;-83
2022/10/14 06:19:41;;;;;;;21.50;19.30;;;14.30;99.90;;;;;;5013813;28;20450;-83
2022/10/14 06:22:08;;;;;;;19.77;17.33;;;14.40;99.90;;;;;;5011045;28;20466;-78
2022/10/14 06:24:35;;;;;;;19.57;17.47;;;14.40;99.90;;;;;;5011988;28;20451;-79
2022/10/14 06:27:01;;;;;;;23.07;17.40;;;14.40;99.90;;;;;;4996730;28;20471;-84
2022/10/14 06:29:31;;;;;;;19.20;16.97;;;14.40;99.90;;;;;;5002597;28;20442;-84
2022/10/14 06:31:59;;;;;;;18.53;16.40;;;14.40;99.90;;;;;;5016108;28;20500;-84
2022/10/14 06:34:26;;;;;;;18.43;16.53;;;14.30;99.90;;;;;;5023179;28;20450;-84
2022/10/14 06:36:53;;;;;;;25.70;16.70;;;14.40;99.90;;;;;;5022204;28;20450;-84
2022/10/14 06:39:19;;;;;;;21.50;17.10;;;14.40;99.90;;;;;;5030373;28;20453;-83
2022/10/14 06:41:46;;;;;;;22.10;18.03;;;14.40;99.90;;;;;;5032469;28;20484;-84
2022/10/14 06:44:14;;;;;;;18.77;16.00;;;14.50;99.90;;;;;;5041360;28;20454;-84
2022/10/14 06:46:41;;;;;;;19.73;16.10;;;14.50;99.90;;;;;;5041222;28;20442;-84
2022/10/14 06:49:09;;;;;;;19.23;17.47;;;14.50;99.90;;;;;;5040299;28;20449;-84
2022/10/14 06:51:37;;;;;;;21.10;17.40;;;14.50;99.90;;;;;;5048543;28;20469;-83
2022/10/14 06:54:04;;;;;;;16.63;14.80;;;14.50;99.90;;;;;;5044614;28;20453;-84
2022/10/14 06:56:32;;;;;;;18.37;16.33;;;14.50;99.90;;;;;;5044732;28;20450;-82
2022/10/14 06:58:59;;;;;;;17.63;15.37;;;14.50;99.90;;;;;;5040709;28;20441;-84
2022/10/14 07:01:26;;;;;;;22.67;18.20;;;14.60;99.90;;;;;;5039996;28;20426;-84
2022/10/14 07:03:53;;;;;;;19.33;16.27;;;14.70;99.90;;;;;;5039485;28;20449;-83
2022/10/14 07:06:21;;;;;;;20.47;18.27;;;14.80;99.90;;;;;;5040699;28;20463;-83
2022/10/14 07:08:47;;;;;;;19.47;16.13;;;14.80;99.90;;;;;;5039912;28;20848;-84
2022/10/14 07:11:14;;;;;;;24.40;17.80;;;14.90;99.90;;;;;;5046091;28;20449;-83
2022/10/14 07:13:41;;;;;;;25.60;16.70;;;14.90;99.90;;;;;;5044114;28;20444;-84
2022/10/14 07:16:08;;;;;;;19.43;17.50;;;15.00;99.90;;;;;;5048254;28;20521;-83
2022/10/14 07:18:34;;;;;;;21.47;15.50;;;15.00;99.90;;;;;;5046213;28;20451;-83
2022/10/14 07:21:05;;;;;;;18.47;16.40;;;15.00;99.90;;;;;;5040335;28;20564;-84
2022/10/14 07:23:33;;;;;;;21.43;16.53;;;15.00;99.90;;;;;;5040365;28;20472;-84
2022/10/14 07:26:00;;;;;;;16.90;15.10;;;15.10;99.90;;;;;;5046170;28;20457;-84
2022/10/14 07:28:27;;;;;;;21.00;15.80;;;15.00;99.90;;;;;;5033839;28;20481;-83
2022/10/14 07:30:59;;;;;;;18.33;16.53;;;15.00;99.90;;;;;;5050542;28;20433;-84
2022/10/14 07:33:25;;;;;;;18.20;14.90;;;15.10;99.90;;;;;;5044033;28;20481;-84
2022/10/14 07:35:52;;;;;;;20.73;16.80;;;15.10;99.90;;;;;;5040926;28;20460;-83
2022/10/14 07:38:19;;;;;;;22.30;16.90;;;15.20;99.90;;;;;;5040476;28;20449;-84
2022/10/14 07:40:59;;;;;;;17.40;14.27;;;15.40;99.90;;;;;;5039305;28;20438;-83
2022/10/14 07:43:26;;;;;;;15.17;12.80;;;15.50;99.90;;;;;;5040200;28;20879;-84
2022/10/14 07:45:59;;;;;;;17.83;13.60;;;15.70;99.90;;;;;;5039619;28;20445;-84
2022/10/14 07:48:26;;;;;;;17.87;13.53;;;15.90;99.90;;;;;;5039206;28;20517;-83
2022/10/14 07:50:53;;;;;;;19.10;13.83;;;16.20;99.90;;;;;;5051242;28;20449;-84
2022/10/14 07:53:20;;;;;;;16.27;14.67;;;16.40;99.90;;;;;;5047054;28;20469;-84
2022/10/14 07:55:51;;;;;;;17.67;13.53;;;16.60;99.90;;;;;;5039772;28;20452;-84
2022/10/14 07:58:19;;;;;;;17.30;14.07;;;16.80;99.90;;;;;;5038916;28;20861;-84
2022/10/14 08:00:46;;;;;;;15.60;13.80;;;16.90;99.90;;;;;;5038869;28;20458;-83
2022/10/14 08:03:13;;;;;;;15.97;13.47;;;17.00;99.90;;;;;;5038927;28;20470;-83
2022/10/14 08:05:40;;;;;;;17.67;13.00;;;17.00;99.90;;;;;;5039031;28;20831;-84
2022/10/14 08:08:07;;;;;;;16.60;13.07;;;16.90;99.90;;;;;;5038257;28;20478;-85
2022/10/14 08:10:34;;;;;;;13.50;12.10;;;16.90;99.90;;;;;;5039520;28;20451;-83
2022/10/14 08:13:02;;;;;;;19.10;13.93;;;16.80;99.90;;;;;;5047456;28;20467;-83
2022/10/14 08:15:32;;;;;;;17.00;13.27;;;16.80;99.90;;;;;;5035022;28;20457;-83
2022/10/14 08:17:59;;;;;;;26.50;12.17;;;16.70;99.90;;;;;;5034902;28;20457;-83
2022/10/14 08:20:26;;;;;;;16.10;12.57;;;16.80;99.90;;;;;;5045056;28;20445;-84
2022/10/14 08:22:53;;;;;;;15.63;13.63;;;16.80;99.90;;;;;;5042431;28;20466;-84
2022/10/14 08:25:19;;;;;;;17.53;12.03;;;16.60;99.90;;;;;;5039071;28;20454;-83
2022/10/14 08:27:49;;;;;;;14.03;12.67;;;16.60;99.90;;;;;;5039606;28;20485;-84
2022/10/14 08:30:18;;;;;;;16.67;12.37;;;16.60;99.90;;;;;;5039446;28;20900;-84
2022/10/14 08:32:44;;;;;;;17.07;11.90;;;16.50;99.90;;;;;;5036487;28;20479;-84
2022/10/14 08:35:12;;;;;;;17.50;13.03;;;16.50;99.90;;;;;;5037086;28;20449;-84
2022/10/14 08:37:39;;;;;;;13.20;11.80;;;16.60;99.90;;;;;;5044881;28;20520;-83
2022/10/14 08:40:07;;;;;;;17.00;13.27;;;16.60;99.90;;;;;;5047274;28;20457;-83
2022/10/14 08:42:42;;;;;;;15.10;12.10;;;16.80;99.90;;;;;;5046964;28;20540;-83
2022/10/14 08:45:14;;;;;;;15.53;12.93;;;16.90;99.90;;;;;;5043616;28;20453;-84
2022/10/14 08:47:45;;;;;;;11.97;10.80;;;17.00;99.90;;;;;;5008682;28;20856;-84
2022/10/14 08:50:25;;;;;;;13.43;12.13;;;17.10;99.90;;;;;;5038270;28;20862;-84
2022/10/14 08:52:56;;;;;;;12.60;10.87;;;17.10;99.90;;;;;;5037819;28;20482;-85
2022/10/14 08:55:31;;;;;;;12.77;11.07;;;17.10;99.90;;;;;;5038619;28;20472;-85
2022/10/14 08:58:01;;;;;;;12.47;11.27;;;17.20;99.90;;;;;;5047767;28;20428;-84
2022/10/14 09:00:29;;;;;;;20.90;11.80;;;17.40;99.90;;;;;;5049858;28;20456;-84
2022/10/14 09:02:59;;;;;;;16.13;12.50;;;17.50;99.90;;;;;;5038342;28;20554;-84
2022/10/14 09:05:27;;;;;;;15.37;12.43;;;17.70;99.90;;;;;;5040471;28;20457;-83
2022/10/14 09:07:57;;;;;;;19.17;12.40;;;17.80;99.90;;;;;;5047111;28;20497;-82
2022/10/14 09:10:30;;;;;;;14.27;11.23;;;17.90;99.90;;;;;;5043542;28;20533;-84
2022/10/14 09:13:03;;;;;;;17.13;11.53;;;18.00;99.90;;;;;;5037188;28;20531;-84
2022/10/14 09:15:35;;;;;;;15.83;10.87;;;18.00;99.90;;;;;;5036324;28;20456;-84
2022/10/14 09:18:06;;;;;;;11.13;10.03;;;18.00;99.90;;;;;;5039958;28;20512;-83
2022/10/14 09:20:33;;;;;;;18.63;11.10;;;17.90;99.90;;;;;;5048711;28;20438;-84
2022/10/14 09:23:14;;;;;;;12.57;10.77;;;17.90;99.90;;;;;;5047847;28;21004;-83
2022/10/14 09:25:49;;;;;;;14.20;11.30;;;17.90;99.90;;;;;;5040202;28;20453;-84
2022/10/14 09:28:18;;;;;;;13.90;10.60;;;17.80;99.90;;;;;;5036689;28;20491;-83
2022/10/14 09:30:45;;;;;;;11.93;10.10;;;17.80;99.90;;;;;;5035459;28;20527;-84
2022/10/14 09:33:19;;;;;;;13.73;10.57;;;17.70;99.90;;;;;;5036805;28;20553;-83
2022/10/14 09:35:47;;;;;;;11.30;10.20;;;17.60;99.90;;;;;;5045093;28;20943;-83
2022/10/14 09:38:14;;;;;;;14.63;9.83;;;17.60;99.90;;;;;;5047347;28;20448;-83
2022/10/14 09:40:43;;;;;;;11.80;10.20;;;17.50;99.90;;;;;;5044536;28;20436;-83
2022/10/14 09:43:16;;;;;;;13.00;11.30;;;17.50;99.90;;;;;;5038996;28;20465;-85
2022/10/14 09:45:52;;;;;;;12.00;9.90;;;17.50;99.90;;;;;;5036332;28;20862;-84
2022/10/14 09:48:32;;;;;;;12.20;9.83;;;17.50;99.90;;;;;;5036482;28;20487;-84
2022/10/14 09:51:00;;;;;;;12.87;10.67;;;17.60;99.90;;;;;;5036638;28;20445;-84
2022/10/14 09:53:30;;;;;;;10.90;9.80;;;17.70;99.90;;;;;;5035516;28;20469;-83
2022/10/14 09:56:02;;;;;;;19.33;9.43;;;17.70;99.90;;;;;;5036424;28;20460;-84
2022/10/14 09:58:32;;;;;;;13.53;10.50;;;17.70;99.90;;;;;;5036081;28;20448;-84
2022/10/14 10:01:01;;;;;;;13.23;10.17;;;17.90;99.90;;;;;;5040329;28;20499;-84
2022/10/14 10:03:32;;;;;;;11.07;9.97;;;18.10;99.90;;;;;;5037563;28;20470;-84
2022/10/14 10:06:08;;;;;;;17.63;11.77;;;18.30;99.90;;;;;;5040877;28;20559;-84
2022/10/14 10:08:36;;;;;;;14.17;9.13;;;18.60;99.90;;;;;;5039627;28;20556;-84
2022/10/14 10:11:04;;;;;;;15.33;10.90;;;18.80;99.90;;;;;;5044663;28;20449;-84
2022/10/14 10:13:34;;;;;;;10.30;9.20;;;19.20;99.90;;;;;;5044884;28;20484;-83
2022/10/14 10:16:03;;;;;;;10.43;8.87;;;19.60;99.90;;;;;;5042505;28;20457;-84
2022/10/14 10:18:32;;;;;;;11.43;8.67;;;20.10;99.90;;;;;;5040424;28;20433;-84
2022/10/14 10:21:07;;;;;;;11.23;8.70;;;20.10;99.90;;;;;;5041040;28;20445;-84
2022/10/14 10:23:35;;;;;;;11.97;8.40;;;20.10;99.90;;;;;;5040970;28;20469;-84
2022/10/14 10:26:16;;;;;;;12.67;8.10;;;20.20;99.90;;;;;;5045548;28;20437;-83
2022/10/14 10:28:48;;;;;;;7.70;6.90;;;20.00;99.90;;;;;;5041739;28;20485;-84
2022/10/14 10:31:37;;;;;;;8.17;7.47;;;19.90;99.90;;;;;;5005687;28;1042259;-83
2022/10/14 10:34:20;;;;;;;9.10;8.03;;;19.80;99.90;;;;;;5038346;28;20460;-81
2022/10/14 10:36:55;;;;;;;9.20;7.97;;;19.90;99.90;;;;;;5038325;28;20472;-82
2022/10/14 10:39:30;;;;;;;8.90;8.00;;;19.80;99.90;;;;;;5036100;28;20859;-82
2022/10/14 10:42:08;;;;;;;10.30;8.57;;;19.90;99.90;;;;;;5037495;28;20472;-83
2022/10/14 10:44:46;;;;;;;9.50;8.00;;;20.30;99.90;;;;;;5036723;28;20961;-82
2022/10/14 10:47:30;;;;;;;9.23;7.17;;;20.60;99.90;;;;;;5038981;28;20481;-83
2022/10/14 10:50:29;;;;;;;8.70;7.43;;;20.70;99.90;;;;;;5038626;28;20481;-83
2022/10/14 10:53:15;;;;;;;9.87;8.50;;;20.70;99.90;;;;;;5029018;28;20469;-82
2022/10/14 10:55:52;;;;;;;8.97;8.07;;;20.60;99.90;;;;;;5037329;28;20442;-82
2022/10/14 10:58:34;;;;;;;8.20;7.40;;;20.30;99.90;;;;;;5053501;28;20417;-81
2022/10/14 11:01:05;;;;;;;8.47;7.70;;;20.10;99.90;;;;;;5050017;28;20442;-81
2022/10/14 11:03:52;;;;;;;9.13;7.73;;;20.00;99.90;;;;;;5051226;28;20457;-82
2022/10/14 11:12:12;;;;;;;12.10;8.10;;;19.70;99.90;;;;;;5037066;28;20496;-82
2022/10/14 11:15:11;;;;;;;13.43;8.63;;;19.50;99.90;;;;;;5036257;28;20465;-81
2022/10/14 11:17:47;;;;;;;10.07;7.93;;;19.40;99.90;;;;;;5037398;28;20438;-81
2022/10/14 11:20:25;;;;;;;11.13;8.63;;;19.30;99.90;;;;;;5035883;28;20476;-81
2022/10/14 11:23:13;;;;;;;12.83;7.77;;;19.10;99.90;;;;;;5047305;28;20450;-81
2022/10/14 11:25:49;;;;;;;11.53;8.20;;;19.00;99.90;;;;;;5054257;28;20455;-81
2022/10/14 11:28:27;;;;;;;12.50;7.47;;;18.90;99.90;;;;;;5053445;28;20549;-81
2022/10/14 11:30:58;;;;;;;7.47;5.03;;;18.50;99.90;;;;;;5040038;28;20457;-81
2022/10/14 11:33:38;;;;;;;5.43;4.73;;;18.00;99.90;;;;;;5040835;28;20481;-82
2022/10/14 11:36:19;;;;;;;5.10;4.40;;;17.70;99.90;;;;;;5033282;28;20445;-82
2022/10/14 11:39:03;;;;;;;7.00;5.40;;;17.60;99.90;;;;;;5036282;28;20452;-82
2022/10/14 11:41:48;;;;;;;10.23;6.10;;;17.60;99.90;;;;;;5037821;28;20972;-82
2022/10/14 11:44:24;;;;;;;7.03;5.10;;;17.70;99.90;;;;;;5042826;28;20489;-81
2022/10/14 11:46:55;;;;;;;9.00;5.13;;;17.90;99.90;;;;;;5046052;28;20450;-82
2022/10/14 11:49:26;;;;;;;14.33;4.80;;;18.10;99.90;;;;;;5038255;28;20536;-82
2022/10/14 11:51:57;;;;;;;7.80;4.97;;;18.20;99.90;;;;;;5037214;28;20457;-81
2022/10/14 11:54:32;;;;;;;7.93;4.70;;;18.40;99.90;;;;;;5037407;28;20485;-82
2022/10/14 11:57:04;;;;;;;6.83;4.70;;;18.60;99.90;;;;;;5036441;28;20429;-84
2022/10/14 11:59:47;;;;;;;5.57;4.10;;;18.80;99.90;;;;;;5035695;28;20446;-82
2022/10/14 12:02:25;;;;;;;5.03;4.00;;;19.20;99.90;;;;;;5034560;28;20481;-83
2022/10/14 12:04:58;;;;;;;4.97;4.17;;;19.60;99.90;;;;;;5035474;28;20527;-82
2022/10/14 12:07:31;;;;;;;5.73;4.37;;;19.60;99.90;;;;;;5034971;28;20449;-82
2022/10/14 12:10:01;;;;;;;8.50;7.70;;;19.50;99.90;;;;;;5034892;28;20481;-81
2022/10/14 12:12:31;;;;;;;6.83;5.03;;;19.90;99.90;;;;;;5038248;28;20834;-82
2022/10/14 12:15:01;;;;;;;6.60;5.33;;;20.20;99.90;;;;;;5038988;28;20442;-82
2022/10/14 12:17:32;;;;;;;5.60;4.60;;;20.20;99.90;;;;;;5036395;28;20444;-82
2022/10/14 12:20:03;;;;;;;7.57;4.30;;;20.10;99.90;;;;;;5056036;28;20438;-81
2022/10/14 12:22:32;;;;;;;6.30;4.10;;;20.10;99.90;;;;;;5046266;28;20462;-81
2022/10/14 12:25:05;;;;;;;6.33;4.77;;;20.10;99.90;;;;;;5035875;28;20818;-83
2022/10/14 12:27:34;;;;;;;4.23;3.83;;;20.20;99.90;;;;;;5037984;28;20473;-83
2022/10/14 12:30:01;;;;;;;4.63;4.23;;;20.00;99.90;;;;;;5049138;28;20482;-82
2022/10/14 12:32:30;;;;;;;4.70;3.40;;;19.70;99.90;;;;;;5044821;28;20477;-82
2022/10/14 12:34:58;;;;;;;3.83;3.10;;;19.60;99.90;;;;;;5038707;28;20450;-82
2022/10/14 12:37:49;;;;;;;4.00;3.60;;;19.70;99.90;;;;;;5037337;28;20488;-82
2022/10/14 12:40:35;;;;;;;5.50;4.00;;;19.90;99.90;;;;;;5036998;28;20456;-81
2022/10/14 12:43:15;;;;;;;3.83;2.70;;;20.00;99.90;;;;;;5037071;28;20479;-81
2022/10/14 12:45:56;;;;;;;5.13;3.30;;;20.00;99.90;;;;;;5036133;28;20454;-82
2022/10/14 12:48:25;;;;;;;4.13;3.20;;;19.90;99.90;;;;;;5043354;28;20958;-82
2022/10/14 12:50:57;;;;;;;5.30;3.93;;;19.80;99.90;;;;;;5039109;28;20450;-82
2022/10/14 12:53:26;;;;;;;3.30;3.00;;;19.90;99.90;;;;;;5037199;28;20476;-81
2022/10/14 12:55:55;;;;;;;6.33;3.73;;;19.90;99.90;;;;;;5044420;28;20452;-82